Time;durP1;ratioP1;P1;durP2;ratioP2;P2;SDS_P1;SDS_P2;PMS_P1;PMS_P2;Temp;Humidity;BMP_temperature;BMP_pressure;BME280_temperature;BME280_humidity;BME280_pressure;Samples;Min_cycle;Max_cycle;Signal;HPM_P1;HPM_P2
2023/09/11 00:01:10;;;;;;;1.60;1.50;;;;;;;;;;10459599;27;20073;-61
2023/09/11 00:06:08;;;;;;;2.33;1.27;;;;;;;;;;10458396;27;20078;-62
2023/09/11 00:11:08;;;;;;;2.42;1.52;;;;;;;;;;10460015;27;20519;-62
2023/09/11 00:16:06;;;;;;;5.72;1.48;;;;;;;;;;10457459;27;20074;-62
2023/09/11 00:21:04;;;;;;;1.70;1.20;;;;;;;;;;10458755;27;20055;-62
2023/09/11 00:26:02;;;;;;;4.53;1.60;;;;;;;;;;10454718;27;20523;-61
2023/09/11 00:31:02;;;;;;;3.70;1.35;;;;;;;;;;10455503;27;20535;-62
2023/09/11 00:36:00;;;;;;;3.53;1.60;;;;;;;;;;10456885;27;20070;-61
2023/09/11 00:40:58;;;;;;;2.92;1.25;;;;;;;;;;10460737;27;20054;-61
2023/09/11 00:45:57;;;;;;;3.22;1.40;;;;;;;;;;10453351;27;20081;-61
2023/09/11 00:50:57;;;;;;;3.15;1.40;;;;;;;;;;10459635;27;20062;-61
2023/09/11 00:55:55;;;;;;;1.70;1.30;;;;;;;;;;10458010;27;20498;-61
2023/09/11 01:00:54;;;;;;;4.47;1.40;;;;;;;;;;10443446;27;20415;-62
2023/09/11 01:05:55;;;;;;;4.85;1.75;;;;;;;;;;10438189;27;20078;-62
2023/09/11 01:10:54;;;;;;;1.98;1.50;;;;;;;;;;10456984;27;20058;-61
2023/09/11 01:15:55;;;;;;;2.15;1.23;;;;;;;;;;10458675;27;20062;-62
2023/09/11 01:21:01;;;;;;;2.83;1.67;;;;;;;;;;10457577;27;20054;-61
2023/09/11 01:26:06;;;;;;;6.38;1.90;;;;;;;;;;10454225;27;20082;-62
2023/09/11 01:31:06;;;;;;;4.20;1.40;;;;;;;;;;10440492;27;20074;-62
2023/09/11 01:36:04;;;;;;;1.65;1.35;;;;;;;;;;10452069;27;20073;-61
2023/09/11 01:41:04;;;;;;;1.67;1.17;;;;;;;;;;10454527;27;20062;-62
2023/09/11 01:46:03;;;;;;;1.52;1.20;;;;;;;;;;10439953;27;20069;-62
2023/09/11 01:51:03;;;;;;;4.00;1.20;;;;;;;;;;10437446;27;20082;-62
2023/09/11 01:56:01;;;;;;;2.33;1.30;;;;;;;;;;10454437;27;20074;-62
2023/09/11 02:01:00;;;;;;;1.63;1.40;;;;;;;;;;10435089;27;20066;-63
2023/09/11 02:05:59;;;;;;;1.30;1.20;;;;;;;;;;10453306;27;20786;-62
2023/09/11 02:10:58;;;;;;;1.95;1.65;;;;;;;;;;10434926;27;20046;-62
2023/09/11 02:15:56;;;;;;;1.80;1.27;;;;;;;;;;10451521;27;20063;-63
2023/09/11 02:20:55;;;;;;;3.45;1.77;;;;;;;;;;10445594;27;20439;-62
2023/09/11 02:25:53;;;;;;;1.83;1.70;;;;;;;;;;10437098;27;20075;-62
2023/09/11 02:30:52;;;;;;;4.03;2.45;;;;;;;;;;10454647;27;20093;-62
2023/09/11 02:35:52;;;;;;;2.50;1.60;;;;;;;;;;10438841;27;20047;-62
2023/09/11 02:40:52;;;;;;;2.97;2.00;;;;;;;;;;10435319;27;20134;-62
2023/09/11 02:46:05;;;;;;;4.78;2.10;;;;;;;;;;10454723;27;20063;-62
2023/09/11 02:51:04;;;;;;;3.63;1.92;;;;;;;;;;10450558;27;20515;-62
2023/09/11 02:56:02;;;;;;;2.70;1.60;;;;;;;;;;10453936;27;20077;-62
2023/09/11 03:01:01;;;;;;;3.03;1.75;;;;;;;;;;10443587;27;20500;-62
2023/09/11 03:06:02;;;;;;;6.63;2.60;;;;;;;;;;10443892;27;20460;-61
2023/09/11 03:11:04;;;;;;;7.53;5.35;;;;;;;;;;10451774;27;20066;-61
2023/09/11 03:16:10;;;;;;;12.25;10.00;;;;;;;;;;10432371;27;20463;-62
2023/09/11 03:21:11;;;;;;;10.32;4.38;;;;;;;;;;10436497;27;20075;-62
2023/09/11 03:26:13;;;;;;;12.45;6.18;;;;;;;;;;10452268;27;20066;-62
2023/09/11 03:31:12;;;;;;;11.77;8.35;;;;;;;;;;10436705;27;20480;-62
2023/09/11 03:36:16;;;;;;;10.00;4.65;;;;;;;;;;10451191;27;20083;-62
2023/09/11 03:41:14;;;;;;;5.23;4.60;;;;;;;;;;10450086;27;20076;-62
2023/09/11 03:46:13;;;;;;;7.43;4.78;;;;;;;;;;10434594;27;20124;-62
2023/09/11 03:51:16;;;;;;;6.60;4.57;;;;;;;;;;10432634;27;20078;-61
2023/09/11 03:56:15;;;;;;;6.70;4.85;;;;;;;;;;10439719;27;20046;-62
2023/09/11 04:01:16;;;;;;;13.30;7.20;;;;;;;;;;10432305;27;20044;-61
2023/09/11 04:06:16;;;;;;;10.10;4.57;;;;;;;;;;10450780;27;20067;-63
2023/09/11 04:11:14;;;;;;;5.75;3.50;;;;;;;;;;10443510;27;20500;-63
2023/09/11 04:16:15;;;;;;;5.15;2.30;;;;;;;;;;10451883;27;20500;-62
2023/09/11 04:21:13;;;;;;;4.97;2.28;;;;;;;;;;10442096;27;20047;-62
2023/09/11 04:26:13;;;;;;;5.30;2.35;;;;;;;;;;10457059;27;20081;-63
2023/09/11 04:31:11;;;;;;;7.32;2.85;;;;;;;;;;10463068;27;20079;-63
2023/09/11 04:36:11;;;;;;;10.05;4.00;;;;;;;;;;10443610;27;20082;-63
2023/09/11 04:41:10;;;;;;;14.43;5.25;;;;;;;;;;10441525;27;20066;-63
2023/09/11 04:46:10;;;;;;;25.42;4.90;;;;;;;;;;10445231;27;20074;-63
2023/09/11 04:51:08;;;;;;;10.98;3.22;;;;;;;;;;10460714;27;20070;-63
2023/09/11 04:56:07;;;;;;;6.32;2.92;;;;;;;;;;10457682;27;20081;-63
2023/09/11 05:01:05;;;;;;;5.10;2.90;;;;;;;;;;10443271;27;20078;-62
2023/09/11 05:06:05;;;;;;;13.48;3.50;;;;;;;;;;10440232;27;20078;-62
2023/09/11 05:11:06;;;;;;;8.80;2.95;;;;;;;;;;10439226;27;20074;-63
2023/09/11 05:16:04;;;;;;;14.25;3.20;;;;;;;;;;10434466;27;20060;-62
2023/09/11 05:21:03;;;;;;;5.47;2.38;;;;;;;;;;10446624;27;20058;-62
2023/09/11 05:26:07;;;;;;;5.55;2.40;;;;;;;;;;10437521;27;20082;-62
2023/09/11 05:31:07;;;;;;;4.68;2.13;;;;;;;;;;10453506;27;20076;-62
2023/09/11 05:36:06;;;;;;;8.90;2.10;;;;;;;;;;10452263;27;20074;-62
2023/09/11 05:41:06;;;;;;;5.93;2.25;;;;;;;;;;10456681;27;20453;-62
2023/09/11 05:46:04;;;;;;;6.65;1.60;;;;;;;;;;10455212;27;20077;-62
2023/09/11 05:51:03;;;;;;;6.97;2.10;;;;;;;;;;10458733;27;20059;-62
2023/09/11 05:56:01;;;;;;;12.35;4.18;;;;;;;;;;10456214;27;20069;-62
2023/09/11 06:01:01;;;;;;;12.13;3.33;;;;;;;;;;10457466;27;20078;-60
2023/09/11 06:06:00;;;;;;;4.93;2.08;;;;;;;;;;10452568;27;20115;-61
2023/09/11 06:10:59;;;;;;;6.03;2.00;;;;;;;;;;10454801;27;20078;-61
2023/09/11 06:15:57;;;;;;;4.03;1.73;;;;;;;;;;10454197;27;20070;-61
2023/09/11 06:20:57;;;;;;;5.45;1.48;;;;;;;;;;10461225;27;20054;-64
2023/09/11 06:25:56;;;;;;;5.82;1.38;;;;;;;;;;10456569;27;20073;-63
2023/09/11 06:30:54;;;;;;;3.70;1.45;;;;;;;;;;10457152;27;20461;-62
2023/09/11 06:35:52;;;;;;;2.72;2.10;;;;;;;;;;10454045;27;20350;-62
2023/09/11 06:40:52;;;;;;;8.35;2.20;;;;;;;;;;10457797;27;20512;-62
2023/09/11 06:45:52;;;;;;;5.85;1.40;;;;;;;;;;10448392;27;20070;-62
2023/09/11 06:50:52;;;;;;;2.88;1.30;;;;;;;;;;10452921;27;20066;-61
2023/09/11 06:55:53;;;;;;;2.97;1.50;;;;;;;;;;10452119;27;20066;-62
2023/09/11 07:00:51;;;;;;;2.42;1.33;;;;;;;;;;10452573;27;20449;-62
2023/09/11 07:05:51;;;;;;;6.15;2.40;;;;;;;;;;10452275;27;20067;-61
2023/09/11 07:10:50;;;;;;;4.75;1.70;;;;;;;;;;10450970;27;20066;-63
2023/09/11 07:15:59;;;;;;;2.95;1.42;;;;;;;;;;10451046;27;20082;-62
2023/09/11 07:20:58;;;;;;;3.50;1.00;;;;;;;;;;10454860;27;20067;-62
2023/09/11 07:25:56;;;;;;;7.15;1.27;;;;;;;;;;10446831;27;20069;-62
2023/09/11 07:30:54;;;;;;;2.38;1.20;;;;;;;;;;10440342;27;20074;-62
2023/09/11 07:35:54;;;;;;;2.15;1.30;;;;;;;;;;10437148;27;20479;-62
2023/09/11 07:40:52;;;;;;;2.10;1.40;;;;;;;;;;10454639;27;20074;-62
2023/09/11 07:45:51;;;;;;;2.00;1.20;;;;;;;;;;10450430;27;20081;-61
2023/09/11 07:50:55;;;;;;;4.10;1.65;;;;;;;;;;10450765;27;20066;-63
2023/09/11 07:55:55;;;;;;;3.72;1.40;;;;;;;;;;10460192;27;20074;-63
2023/09/11 08:00:53;;;;;;;3.65;2.00;;;;;;;;;;10464107;27;20062;-63
2023/09/11 08:05:54;;;;;;;4.80;1.67;;;;;;;;;;10456225;27;20504;-62
2023/09/11 08:10:52;;;;;;;3.60;1.77;;;;;;;;;;10443822;27;20074;-62
2023/09/11 08:15:55;;;;;;;3.80;1.38;;;;;;;;;;10457732;27;20063;-63
2023/09/11 08:20:53;;;;;;;3.10;1.20;;;;;;;;;;10462406;27;20062;-63
2023/09/11 08:25:56;;;;;;;1.73;1.55;;;;;;;;;;10454569;27;20070;-63
2023/09/11 08:30:55;;;;;;;3.30;1.27;;;;;;;;;;10463240;27;20083;-62
2023/09/11 08:35:53;;;;;;;2.53;1.08;;;;;;;;;;10457541;27;20077;-63
2023/09/11 08:40:52;;;;;;;2.13;1.38;;;;;;;;;;10458922;27;20069;-63
2023/09/11 08:45:50;;;;;;;4.80;1.15;;;;;;;;;;10456822;27;20069;-63
2023/09/11 08:50:54;;;;;;;5.35;1.90;;;;;;;;;;10460178;27;20074;-63
2023/09/11 08:55:54;;;;;;;2.80;1.70;;;;;;;;;;10454959;27;20187;-62
2023/09/11 09:00:52;;;;;;;2.10;1.17;;;;;;;;;;10457571;27;20066;-63
2023/09/11 09:05:52;;;;;;;1.50;1.35;;;;;;;;;;10457300;27;20073;-63
2023/09/11 09:10:51;;;;;;;1.85;1.48;;;;;;;;;;10458493;27;20066;-63
2023/09/11 09:15:49;;;;;;;3.70;1.63;;;;;;;;;;10457493;27;20059;-63
2023/09/11 09:20:48;;;;;;;2.40;1.50;;;;;;;;;;10457329;27;20075;-63
2023/09/11 09:25:47;;;;;;;3.15;2.00;;;;;;;;;;10456679;27;20096;-62
2023/09/11 09:30:45;;;;;;;3.60;1.33;;;;;;;;;;10459042;27;20079;-62
2023/09/11 09:35:44;;;;;;;4.07;1.17;;;;;;;;;;10463855;27;20069;-61
2023/09/11 09:40:43;;;;;;;8.75;1.98;;;;;;;;;;10458471;27;20066;-62
2023/09/11 09:45:43;;;;;;;3.38;1.80;;;;;;;;;;10452951;27;20516;-62
2023/09/11 09:50:48;;;;;;;2.47;2.03;;;;;;;;;;10458118;27;20059;-61
2023/09/11 09:55:46;;;;;;;3.45;2.25;;;;;;;;;;10461323;27;20067;-63
2023/09/11 10:00:45;;;;;;;2.70;1.58;;;;;;;;;;10458827;27;20062;-62
2023/09/11 10:05:49;;;;;;;8.68;1.80;;;;;;;;;;10453410;27;20067;-63
2023/09/11 10:10:47;;;;;;;3.70;2.25;;;;;;;;;;10455533;27;20608;-62
2023/09/11 10:15:46;;;;;;;5.18;1.48;;;;;;;;;;10457838;27;20530;-63
2023/09/11 10:20:45;;;;;;;4.97;1.60;;;;;;;;;;10454876;27;20078;-62
2023/09/11 10:25:44;;;;;;;3.50;1.80;;;;;;;;;;10459542;27;20074;-62
2023/09/11 10:30:46;;;;;;;2.05;1.35;;;;;;;;;;10454158;27;20389;-61
2023/09/11 10:36:08;;;;;;;5.13;2.45;;;;;;;;;;10453689;27;20077;-63
2023/09/11 10:41:07;;;;;;;6.28;2.03;;;;;;;;;;10451883;27;20515;-64
2023/09/11 10:46:23;;;;;;;6.70;2.28;;;;;;;;;;10452417;27;20070;-63
2023/09/11 10:51:23;;;;;;;4.45;2.47;;;;;;;;;;10436232;27;20086;-63
2023/09/11 10:56:22;;;;;;;9.10;1.90;;;;;;;;;;10451668;27;20146;-62
2023/09/11 11:01:20;;;;;;;3.10;2.00;;;;;;;;;;10452606;27;20074;-62
2023/09/11 11:06:23;;;;;;;7.03;1.95;;;;;;;;;;10449577;27;20277;-64
2023/09/11 11:11:27;;;;;;;2.60;1.75;;;;;;;;;;10454658;27;20469;-63
2023/09/11 11:16:25;;;;;;;6.53;1.80;;;;;;;;;;10444968;27;20069;-62
2023/09/11 11:21:24;;;;;;;3.05;1.88;;;;;;;;;;10455042;27;20066;-63
2023/09/11 11:26:23;;;;;;;8.55;2.70;;;;;;;;;;10449525;27;20085;-62
2023/09/11 11:31:22;;;;;;;7.45;2.25;;;;;;;;;;10461700;27;20082;-62
2023/09/11 11:36:21;;;;;;;6.90;2.03;;;;;;;;;;10465439;27;20457;-62
2023/09/11 11:41:20;;;;;;;10.77;2.47;;;;;;;;;;10460816;27;20070;-62
2023/09/11 11:46:21;;;;;;;6.18;2.40;;;;;;;;;;10461879;27;20074;-61
2023/09/11 11:51:27;;;;;;;12.57;2.45;;;;;;;;;;10462081;27;20067;-62
2023/09/11 11:56:27;;;;;;;13.18;2.50;;;;;;;;;;10462827;27;20062;-61
2023/09/11 12:01:25;;;;;;;5.18;2.28;;;;;;;;;;10459638;27;20063;-62
2023/09/11 12:06:23;;;;;;;4.63;1.98;;;;;;;;;;10462332;27;20071;-61
2023/09/11 12:11:21;;;;;;;3.15;2.03;;;;;;;;;;10458466;27;20077;-62
2023/09/11 12:16:21;;;;;;;5.30;2.10;;;;;;;;;;10461012;27;20058;-61
2023/09/11 12:21:19;;;;;;;5.05;2.15;;;;;;;;;;10460906;27;20085;-62
2023/09/11 12:26:18;;;;;;;7.90;1.83;;;;;;;;;;10463241;27;20073;-62
2023/09/11 12:31:19;;;;;;;4.90;2.17;;;;;;;;;;10461117;27;20082;-62
2023/09/11 12:36:21;;;;;;;7.68;2.47;;;;;;;;;;10459691;27;20070;-62
2023/09/11 12:41:20;;;;;;;4.65;2.97;;;;;;;;;;10457937;27;20088;-63
2023/09/11 12:46:19;;;;;;;11.50;2.20;;;;;;;;;;10461593;27;20507;-64
2023/09/11 12:51:17;;;;;;;4.00;2.17;;;;;;;;;;10459979;27;20423;-62
2023/09/11 12:56:21;;;;;;;6.80;2.38;;;;;;;;;;10458888;27;20074;-63
2023/09/11 13:01:19;;;;;;;5.40;1.85;;;;;;;;;;10454248;27;20078;-62
2023/09/11 13:06:17;;;;;;;5.00;2.10;;;;;;;;;;10455800;27;20522;-64
2023/09/11 13:11:16;;;;;;;4.50;2.38;;;;;;;;;;10461272;27;20066;-63
2023/09/11 13:16:15;;;;;;;7.60;2.10;;;;;;;;;;10456667;27;20066;-62
2023/09/11 13:21:14;;;;;;;3.60;2.42;;;;;;;;;;10455153;27;20093;-62
2023/09/11 13:26:12;;;;;;;7.80;2.55;;;;;;;;;;10455719;27;20071;-63
2023/09/11 13:31:10;;;;;;;3.45;1.98;;;;;;;;;;10457187;27;20453;-63
2023/09/11 13:36:10;;;;;;;7.45;2.03;;;;;;;;;;10455194;27;20047;-63
2023/09/11 13:41:08;;;;;;;10.07;2.38;;;;;;;;;;10455984;27;20105;-64
2023/09/11 13:46:07;;;;;;;3.65;2.33;;;;;;;;;;10457356;27;20078;-63
2023/09/11 13:51:05;;;;;;;3.67;1.92;;;;;;;;;;10457507;27;20081;-61
2023/09/11 13:56:05;;;;;;;8.45;2.10;;;;;;;;;;10458266;27;20074;-63
2023/09/11 14:01:03;;;;;;;7.45;2.50;;;;;;;;;;10455461;27;20079;-61
2023/09/11 14:06:01;;;;;;;7.22;2.38;;;;;;;;;;10455545;27;20075;-63
2023/09/11 14:10:59;;;;;;;6.60;2.00;;;;;;;;;;10455520;27;20101;-63
2023/09/11 14:15:59;;;;;;;6.75;2.35;;;;;;;;;;10455883;27;20070;-62
2023/09/11 14:20:57;;;;;;;6.25;2.80;;;;;;;;;;10453200;27;20074;-62
2023/09/11 14:25:56;;;;;;;6.00;2.33;;;;;;;;;;10455541;27;20066;-62
2023/09/11 14:30:54;;;;;;;5.43;1.88;;;;;;;;;;10456781;27;20105;-62
2023/09/11 14:35:54;;;;;;;5.50;2.30;;;;;;;;;;10451903;27;20067;-62
2023/09/11 14:40:55;;;;;;;8.52;2.55;;;;;;;;;;10452634;27;20070;-62
2023/09/11 14:45:53;;;;;;;5.40;2.20;;;;;;;;;;10454888;27;20070;-61
2023/09/11 14:50:51;;;;;;;14.07;2.78;;;;;;;;;;10448863;27;20499;-62
2023/09/11 14:55:51;;;;;;;6.88;2.40;;;;;;;;;;10457895;27;20503;-62
2023/09/11 15:00:49;;;;;;;9.95;2.90;;;;;;;;;;10451097;27;20074;-62
2023/09/11 15:05:47;;;;;;;10.00;3.00;;;;;;;;;;10457809;27;20487;-63
2023/09/11 15:10:47;;;;;;;9.00;2.58;;;;;;;;;;10456733;27;20093;-62
2023/09/11 15:15:48;;;;;;;5.32;2.83;;;;;;;;;;10450111;27;20089;-62
2023/09/11 15:20:46;;;;;;;6.90;3.13;;;;;;;;;;10451997;27;20471;-64
2023/09/11 15:25:46;;;;;;;7.82;2.55;;;;;;;;;;10452681;27;20081;-63
2023/09/11 15:30:44;;;;;;;3.40;2.65;;;;;;;;;;10449766;27;20089;-62
2023/09/11 15:35:57;;;;;;;12.85;3.28;;;;;;;;;;10453123;27;20074;-62
2023/09/11 15:41:02;;;;;;;5.90;2.88;;;;;;;;;;10449008;27;20096;-62
2023/09/11 15:46:02;;;;;;;5.43;3.15;;;;;;;;;;10452991;27;20067;-63
2023/09/11 15:51:00;;;;;;;13.10;4.43;;;;;;;;;;10452708;27;20074;-63
2023/09/11 15:56:00;;;;;;;10.48;4.20;;;;;;;;;;10453517;27;20526;-62
2023/09/11 16:00:58;;;;;;;8.57;4.15;;;;;;;;;;10449148;27;20065;-63
2023/09/11 16:05:57;;;;;;;8.85;4.07;;;;;;;;;;10451925;27;20062;-62
2023/09/11 16:10:55;;;;;;;9.30;3.92;;;;;;;;;;10447521;27;20077;-62
2023/09/11 16:15:56;;;;;;;8.70;4.22;;;;;;;;;;10453858;27;20078;-62
2023/09/11 16:20:56;;;;;;;10.68;6.03;;;;;;;;;;10460526;27;20066;-64
2023/09/11 16:25:54;;;;;;;9.85;4.35;;;;;;;;;;10459909;27;20464;-62
2023/09/11 16:30:52;;;;;;;19.58;10.85;;;;;;;;;;10462954;27;20507;-62
2023/09/11 16:35:52;;;;;;;17.73;6.90;;;;;;;;;;10458172;27;20078;-61
2023/09/11 16:40:50;;;;;;;21.63;15.10;;;;;;;;;;10459045;27;20381;-63
2023/09/11 16:45:49;;;;;;;13.18;5.93;;;;;;;;;;10457666;27;20071;-62
2023/09/11 16:50:52;;;;;;;17.67;9.30;;;;;;;;;;10459915;27;20500;-63
2023/09/11 16:55:50;;;;;;;12.77;6.65;;;;;;;;;;10458539;27;20077;-63
2023/09/11 17:00:48;;;;;;;12.23;5.90;;;;;;;;;;10457988;27;20081;-63
2023/09/11 17:05:46;;;;;;;7.60;4.10;;;;;;;;;;10445109;27;20074;-63
2023/09/11 17:10:46;;;;;;;15.00;9.50;;;;;;;;;;10459023;27;20075;-62
2023/09/11 17:15:44;;;;;;;15.52;6.32;;;;;;;;;;10458265;27;20277;-63
2023/09/11 17:20:43;;;;;;;7.30;3.10;;;;;;;;;;10459181;27;20088;-63
2023/09/11 17:25:41;;;;;;;8.52;4.13;;;;;;;;;;10453386;27;20097;-63
2023/09/11 17:30:41;;;;;;;7.90;3.97;;;;;;;;;;10463152;27;20082;-62
2023/09/11 17:35:39;;;;;;;9.70;4.35;;;;;;;;;;10456356;27;20074;-62
2023/09/11 17:40:37;;;;;;;6.30;3.97;;;;;;;;;;10456680;27;20503;-61
2023/09/11 17:45:36;;;;;;;6.20;4.80;;;;;;;;;;10453811;27;20078;-62
2023/09/11 17:50:36;;;;;;;7.45;3.40;;;;;;;;;;10458208;27;20104;-62
2023/09/11 17:55:34;;;;;;;10.75;8.32;;;;;;;;;;10453718;27;20083;-63
2023/09/11 18:00:32;;;;;;;6.93;3.90;;;;;;;;;;10454879;27;20070;-63
2023/09/11 18:05:31;;;;;;;6.50;2.85;;;;;;;;;;10455937;27;20075;-63
2023/09/11 18:10:31;;;;;;;7.10;2.90;;;;;;;;;;10454991;27;20082;-62
2023/09/11 18:15:29;;;;;;;5.10;2.38;;;;;;;;;;10451415;27;20530;-63
2023/09/11 18:20:28;;;;;;;5.90;3.35;;;;;;;;;;10453766;27;20108;-62
2023/09/11 18:25:26;;;;;;;5.88;2.60;;;;;;;;;;10459146;27;20592;-63
2023/09/11 18:30:26;;;;;;;5.13;2.17;;;;;;;;;;10453525;27;20074;-63
2023/09/11 18:35:24;;;;;;;5.65;3.83;;;;;;;;;;10451258;27;20070;-62
2023/09/11 18:40:22;;;;;;;10.30;3.88;;;;;;;;;;10450312;27;20062;-62
2023/09/11 18:45:21;;;;;;;6.03;5.07;;;;;;;;;;10454086;27;20097;-62
2023/09/11 18:50:21;;;;;;;8.85;3.53;;;;;;;;;;10456487;27;20074;-60
2023/09/11 18:55:19;;;;;;;8.15;4.03;;;;;;;;;;10454083;27;20072;-62
2023/09/11 19:00:18;;;;;;;14.27;3.05;;;;;;;;;;10456271;27;20537;-62
2023/09/11 19:05:16;;;;;;;3.10;1.95;;;;;;;;;;10452725;27;20078;-64
2023/09/11 19:10:15;;;;;;;5.35;2.45;;;;;;;;;;10457132;27;20103;-62
2023/09/11 19:15:14;;;;;;;9.90;2.55;;;;;;;;;;10454132;27;20074;-63
2023/09/11 19:20:12;;;;;;;5.88;2.28;;;;;;;;;;10455720;27;20066;-63
2023/09/11 19:25:10;;;;;;;4.63;2.45;;;;;;;;;;10455264;27;20460;-63
2023/09/11 19:30:11;;;;;;;5.70;2.15;;;;;;;;;;10454989;27;20082;-63
2023/09/11 19:35:09;;;;;;;7.78;3.35;;;;;;;;;;10452544;27;20120;-62
2023/09/11 19:40:08;;;;;;;8.32;2.35;;;;;;;;;;10454417;27;20594;-62
2023/09/11 19:45:07;;;;;;;6.03;2.60;;;;;;;;;;10456780;27;20081;-61
2023/09/11 19:50:07;;;;;;;3.78;2.17;;;;;;;;;;10459904;27;20078;-63
2023/09/11 19:55:06;;;;;;;6.95;3.03;;;;;;;;;;10460080;27;20071;-62
2023/09/11 20:00:04;;;;;;;7.88;2.53;;;;;;;;;;10455505;27;20062;-60
2023/09/11 20:05:05;;;;;;;5.88;2.60;;;;;;;;;;10458786;27;20082;-62
2023/09/11 20:10:05;;;;;;;6.22;2.00;;;;;;;;;;10460023;27;20083;-62
2023/09/11 20:15:04;;;;;;;5.05;2.17;;;;;;;;;;10459029;27;20085;-62
2023/09/11 20:20:02;;;;;;;5.82;1.77;;;;;;;;;;10458193;27;20070;-60
2023/09/11 20:25:01;;;;;;;5.22;1.88;;;;;;;;;;10457406;27;20078;-62
2023/09/11 20:30:00;;;;;;;5.97;2.13;;;;;;;;;;10459180;27;20091;-65
2023/09/11 20:35:02;;;;;;;9.38;2.00;;;;;;;;;;10461689;27;20470;-61
2023/09/11 20:40:00;;;;;;;2.88;1.80;;;;;;;;;;10459483;27;20082;-63
2023/09/11 20:44:59;;;;;;;5.13;2.00;;;;;;;;;;10462134;27;20075;-63
2023/09/11 20:49:58;;;;;;;3.47;1.83;;;;;;;;;;10460057;27;20094;-62
2023/09/11 20:54:57;;;;;;;12.23;2.53;;;;;;;;;;10461005;27;20093;-63
2023/09/11 20:59:55;;;;;;;5.53;2.30;;;;;;;;;;10464624;27;20074;-63
2023/09/11 21:04:55;;;;;;;3.22;1.85;;;;;;;;;;10461168;27;20545;-62
2023/09/11 21:09:55;;;;;;;9.05;2.40;;;;;;;;;;10459156;27;20515;-62
2023/09/11 21:14:53;;;;;;;3.90;2.05;;;;;;;;;;10457524;27;20467;-62
2023/09/11 21:19:52;;;;;;;6.28;2.30;;;;;;;;;;10456953;27;20074;-62
2023/09/11 21:24:50;;;;;;;1.88;1.65;;;;;;;;;;10459935;27;20070;-62
2023/09/11 21:29:49;;;;;;;3.47;1.80;;;;;;;;;;10455592;27;20095;-62
2023/09/11 21:34:48;;;;;;;2.53;1.85;;;;;;;;;;10458056;27;20086;-62
2023/09/11 21:39:46;;;;;;;3.42;1.52;;;;;;;;;;10459289;27;20081;-62
2023/09/11 21:44:44;;;;;;;6.88;2.10;;;;;;;;;;10459236;27;20066;-62
2023/09/11 21:49:44;;;;;;;6.82;2.10;;;;;;;;;;10456791;27;20077;-62
2023/09/11 21:54:42;;;;;;;4.93;2.05;;;;;;;;;;10459532;27;20067;-63
2023/09/11 21:59:40;;;;;;;5.78;2.25;;;;;;;;;;10455321;27;20468;-63
2023/09/11 22:04:38;;;;;;;1.77;1.42;;;;;;;;;;10451633;27;20106;-63
2023/09/11 22:09:38;;;;;;;3.97;2.00;;;;;;;;;;10459144;27;20530;-62
2023/09/11 22:14:36;;;;;;;2.55;1.75;;;;;;;;;;10455729;27;20067;-61
2023/09/11 22:19:34;;;;;;;1.58;1.45;;;;;;;;;;10455918;27;20074;-62
2023/09/11 22:24:32;;;;;;;4.40;1.75;;;;;;;;;;10455669;27;20071;-63
2023/09/11 22:29:32;;;;;;;2.10;1.83;;;;;;;;;;10457706;27;20459;-63
2023/09/11 22:34:30;;;;;;;1.80;1.58;;;;;;;;;;10454485;27;20086;-63
2023/09/11 22:39:29;;;;;;;3.60;1.83;;;;;;;;;;10454248;27;20070;-63
2023/09/11 22:44:32;;;;;;;2.90;1.60;;;;;;;;;;10457422;27;20079;-63
2023/09/11 22:49:31;;;;;;;5.93;1.95;;;;;;;;;;10458005;27;20062;-63
2023/09/11 22:54:30;;;;;;;4.15;1.70;;;;;;;;;;10456245;27;20081;-63
2023/09/11 22:59:28;;;;;;;3.45;1.60;;;;;;;;;;10455966;27;20104;-62
2023/09/11 23:04:27;;;;;;;3.03;1.75;;;;;;;;;;10453930;27;20078;-61
2023/09/11 23:09:26;;;;;;;2.25;1.85;;;;;;;;;;10451350;27;20062;-63
2023/09/11 23:14:24;;;;;;;4.20;2.10;;;;;;;;;;10450021;27;20537;-62
2023/09/11 23:19:22;;;;;;;3.25;2.28;;;;;;;;;;10454685;27;20067;-61
2023/09/11 23:24:22;;;;;;;2.55;1.70;;;;;;;;;;10459510;27;20066;-62
2023/09/11 23:29:21;;;;;;;2.20;2.00;;;;;;;;;;10464698;27;20526;-62
2023/09/11 23:34:19;;;;;;;2.47;1.92;;;;;;;;;;10464076;27;20523;-62
2023/09/11 23:39:18;;;;;;;3.97;1.95;;;;;;;;;;10462735;27;20075;-62
2023/09/11 23:44:18;;;;;;;2.60;1.80;;;;;;;;;;10456490;27;20070;-62
2023/09/11 23:49:16;;;;;;;2.13;1.50;;;;;;;;;;10461026;27;20074;-62
2023/09/11 23:54:16;;;;;;;4.20;1.67;;;;;;;;;;10460353;27;20462;-62
2023/09/11 23:59:15;;;;;;;4.50;1.83;;;;;;;;;;10464092;27;20085;-62
